createdAt,value
2022-10-25T00:01:20.549Z,98821.97
2022-10-25T00:03:50.644Z,98825.00
2022-10-25T00:06:18.375Z,98815.56
2022-10-25T00:08:46.170Z,98819.66
2022-10-25T00:11:21.874Z,98820.63
2022-10-25T00:13:50.964Z,98817.06
2022-10-25T00:16:20.671Z,98825.38
2022-10-25T00:18:48.587Z,98827.94
2022-10-25T00:21:16.386Z,98822.50
2022-10-25T00:23:44.174Z,98824.50
2022-10-25T00:26:12.866Z,98826.31
2022-10-25T00:28:42.558Z,98812.63
2022-10-25T00:31:13.328Z,98822.69
2022-10-25T00:33:42.548Z,98823.41
2022-10-25T00:36:12.432Z,98827.19
2022-10-25T00:38:40.714Z,98819.44
2022-10-25T00:41:09.358Z,98819.38
2022-10-25T00:43:39.176Z,98820.53
2022-10-25T00:46:14.810Z,98816.16
2022-10-25T00:48:49.008Z,98819.56
2022-10-25T00:51:16.823Z,98816.22
2022-10-25T00:53:44.658Z,98814.47
2022-10-25T00:56:17.255Z,98817.69
2022-10-25T00:58:47.564Z,98819.31
2022-10-25T01:01:16.841Z,98826.06
2022-10-25T01:03:46.797Z,98824.97
2022-10-25T01:06:19.862Z,98818.16
2022-10-25T01:08:51.026Z,98821.31
2022-10-25T01:11:19.636Z,98821.53
2022-10-25T01:13:49.281Z,98829.75
2022-10-25T01:16:28.726Z,98832.66
2022-10-25T01:19:09.042Z,98817.56
2022-10-25T01:21:48.579Z,98815.84
2022-10-25T01:24:58.622Z,98818.09
2022-10-25T01:27:48.513Z,98814.00
2022-10-25T01:30:21.131Z,98813.94
2022-10-25T01:32:59.491Z,98818.06
2022-10-25T01:35:30.838Z,98813.81
2022-10-25T01:38:18.791Z,98819.19
2022-10-25T01:40:53.593Z,98821.41
2022-10-25T01:43:31.807Z,98817.19
2022-10-25T01:46:08.631Z,98813.44
2022-10-25T01:48:42.538Z,98822.03
2022-10-25T01:51:12.212Z,98826.44
2022-10-25T01:53:47.064Z,98830.78
2022-10-25T01:56:21.022Z,98829.53
2022-10-25T01:59:01.358Z,98826.84
2022-10-25T02:01:40.183Z,98826.19
2022-10-25T02:04:18.455Z,98833.00
2022-10-25T02:06:55.279Z,98819.69
2022-10-25T02:09:32.761Z,98829.44
2022-10-25T02:12:01.694Z,98829.19
2022-10-25T02:14:35.451Z,98821.88
2022-10-25T02:17:08.213Z,98823.38
2022-10-25T02:19:40.974Z,98817.81
2022-10-25T02:22:10.403Z,98832.59
2022-10-25T02:24:40.488Z,98826.03
2022-10-25T02:27:11.759Z,98828.13
2022-10-25T02:29:40.844Z,98822.91
2022-10-25T02:32:08.789Z,98823.75
2022-10-25T02:34:37.855Z,98823.72
2022-10-25T02:37:05.581Z,98825.00
2022-10-25T02:39:34.476Z,98820.50
2022-10-25T02:46:06.842Z,98820.47
2022-10-25T02:48:34.662Z,98815.91
2022-10-25T02:51:03.763Z,98820.69
2022-10-25T02:53:33.859Z,98811.16
2022-10-25T02:56:02.591Z,98811.53
2022-10-25T02:58:31.971Z,98814.06
2022-10-25T03:01:00.474Z,98805.03
2022-10-25T03:03:29.391Z,98808.63
2022-10-25T03:05:57.296Z,98803.31
2022-10-25T03:08:29.319Z,98805.34
2022-10-25T03:10:57.180Z,98810.06
2022-10-25T03:13:24.943Z,98806.41
2022-10-25T03:15:52.743Z,98808.94
2022-10-25T03:18:20.547Z,98812.03
2022-10-25T03:20:48.213Z,98818.75
2022-10-25T03:23:16.308Z,98816.66
2022-10-25T03:25:45.480Z,98820.75
2022-10-25T03:28:13.234Z,98819.72
2022-10-25T03:30:43.445Z,98814.91
2022-10-25T03:33:11.303Z,98817.63
2022-10-25T03:35:39.087Z,98822.97
2022-10-25T03:38:06.821Z,98826.25
2022-10-25T03:40:36.878Z,98820.53
2022-10-25T03:43:05.990Z,98825.72
2022-10-25T03:45:33.724Z,98834.94
2022-10-25T03:48:01.479Z,98833.34
2022-10-25T03:50:29.182Z,98831.34
2022-10-25T03:52:57.012Z,98823.22
2022-10-25T03:55:24.871Z,98827.00
2022-10-25T03:57:52.605Z,98838.31
2022-10-25T04:00:21.821Z,98832.28
2022-10-25T04:02:59.336Z,98839.91
2022-10-25T04:05:29.864Z,98838.09
2022-10-25T04:07:57.573Z,98840.50
2022-10-25T04:10:25.694Z,98843.16
2022-10-25T04:12:54.880Z,98835.69
2022-10-25T04:15:24.340Z,98837.84
2022-10-25T04:17:52.743Z,98842.56
2022-10-25T04:20:21.323Z,98842.28
2022-10-25T04:22:54.984Z,98847.66
2022-10-25T04:25:23.053Z,98842.09
2022-10-25T04:27:50.768Z,98835.88
2022-10-25T04:30:18.757Z,98840.56
2022-10-25T04:32:48.396Z,98844.91
2022-10-25T04:35:16.454Z,98838.41
2022-10-25T04:37:44.139Z,98841.53
2022-10-25T04:40:12.746Z,98842.72
2022-10-25T04:42:40.562Z,98851.44
2022-10-25T04:45:09.019Z,98844.59
2022-10-25T04:47:37.104Z,98847.59
2022-10-25T04:50:07.673Z,98843.03
2022-10-25T04:52:35.396Z,98846.97
2022-10-25T04:55:03.114Z,98838.16
2022-10-25T04:57:30.859Z,98842.97
2022-10-25T04:59:59.128Z,98852.63
2022-10-25T05:02:27.117Z,98861.16
2022-10-25T05:04:54.999Z,98850.72
2022-10-25T05:07:26.517Z,98849.38
2022-10-25T05:09:54.306Z,98855.75
2022-10-25T05:12:24.379Z,98857.94
2022-10-25T05:14:52.094Z,98858.88
2022-10-25T05:17:19.763Z,98865.94
2022-10-25T05:19:47.502Z,98854.53
2022-10-25T05:22:15.299Z,98856.44
2022-10-25T05:24:44.438Z,98858.88
2022-10-25T05:27:12.320Z,98861.75
2022-10-25T05:29:40.174Z,98865.88
2022-10-25T05:32:08.270Z,98863.94
2022-10-25T05:34:36.016Z,98868.66
2022-10-25T05:37:03.741Z,98865.03
2022-10-25T05:39:31.454Z,98865.88
2022-10-25T05:42:06.224Z,98856.72
2022-10-25T05:44:33.954Z,98859.16
2022-10-25T05:47:01.661Z,98866.44
2022-10-25T05:49:29.400Z,98867.97
2022-10-25T05:51:57.366Z,98866.53
2022-10-25T05:54:25.214Z,98869.09
2022-10-25T05:56:53.083Z,98878.84
2022-10-25T05:59:22.141Z,98878.72
2022-10-25T06:01:50.316Z,98879.44
2022-10-25T06:04:18.660Z,98885.47
2022-10-25T06:06:48.127Z,98885.72
2022-10-25T06:09:15.817Z,98895.63
2022-10-25T06:11:43.726Z,98892.84
2022-10-25T06:14:12.014Z,98888.13
2022-10-25T06:16:41.132Z,98886.31
2022-10-25T06:19:09.176Z,98883.28
2022-10-25T06:21:37.054Z,98892.72
2022-10-25T06:24:05.211Z,98895.84
2022-10-25T06:26:33.476Z,98904.72
2022-10-25T06:29:02.686Z,98914.97
2022-10-25T06:31:31.902Z,98918.81
2022-10-25T06:34:01.577Z,98917.84
2022-10-25T06:36:31.077Z,98932.31
2022-10-25T06:39:05.123Z,98928.53
2022-10-25T06:41:36.769Z,98934.66
2022-10-25T06:44:06.692Z,98930.22
2022-10-25T06:46:52.598Z,98936.19
2022-10-25T06:49:26.008Z,98932.13
2022-10-25T06:51:53.698Z,98954.84
2022-10-25T06:54:21.378Z,98951.44
2022-10-25T06:56:49.230Z,98954.31
2022-10-25T06:59:17.110Z,98954.56
2022-10-25T07:01:44.962Z,98957.66
2022-10-25T07:04:12.816Z,98950.50
2022-10-25T07:06:42.057Z,98962.69
2022-10-25T07:09:12.359Z,98964.56
2022-10-25T07:11:42.921Z,98953.41
2022-10-25T07:14:11.729Z,98965.44
2022-10-25T07:16:39.634Z,98964.53
2022-10-25T07:19:07.464Z,98963.81
2022-10-25T07:21:35.566Z,98961.63
2022-10-25T07:24:05.005Z,98972.34
2022-10-25T07:26:35.933Z,98966.84
2022-10-25T07:29:05.412Z,98969.25
2022-10-25T07:31:36.377Z,98967.28
2022-10-25T07:34:06.070Z,98963.78
2022-10-25T07:36:34.061Z,98968.38
2022-10-25T07:39:01.725Z,98966.44
2022-10-25T07:41:30.859Z,98966.69
2022-10-25T07:43:58.624Z,98968.28
2022-10-25T07:46:26.600Z,98975.56
2022-10-25T07:48:54.334Z,98972.41
2022-10-25T07:51:22.132Z,98973.38
2022-10-25T07:53:53.894Z,98976.22
2022-10-25T07:56:23.918Z,98977.72
2022-10-25T07:58:53.509Z,98974.31
2022-10-25T08:01:23.482Z,98968.38
2022-10-25T08:03:51.755Z,98975.41
2022-10-25T08:06:20.808Z,98970.00
2022-10-25T08:08:48.541Z,98970.28
2022-10-25T08:11:18.914Z,98973.19
2022-10-25T08:13:49.918Z,98965.03
2022-10-25T08:16:19.375Z,98957.72
2022-10-25T08:18:47.131Z,98967.06
2022-10-25T08:21:14.896Z,98966.13
2022-10-25T08:23:42.603Z,98968.31
2022-10-25T08:26:10.351Z,98973.41
2022-10-25T08:28:38.135Z,98961.44
2022-10-25T08:31:06.122Z,98970.06
2022-10-25T08:33:36.750Z,98973.13
2022-10-25T08:36:04.882Z,98970.28
2022-10-25T08:38:32.599Z,98967.75
2022-10-25T08:41:10.176Z,98967.13
2022-10-25T08:44:11.885Z,98971.09
2022-10-25T08:46:43.486Z,98957.91
2022-10-25T08:49:19.850Z,98969.22
2022-10-25T08:51:50.549Z,98966.47
2022-10-25T08:54:27.689Z,98965.53
2022-10-25T08:57:15.068Z,98971.25
2022-10-25T08:59:46.488Z,98966.03
2022-10-25T09:02:21.433Z,98967.41
2022-10-25T09:04:50.655Z,98970.91
2022-10-25T09:07:40.573Z,98977.31
2022-10-25T09:10:20.176Z,98970.91
2022-10-25T09:12:57.330Z,98976.59
2022-10-25T09:15:40.525Z,98977.28
2022-10-25T09:18:16.422Z,98983.66
2022-10-25T09:20:50.605Z,98981.31
2022-10-25T09:23:25.962Z,98971.59
2022-10-25T09:26:01.965Z,98986.34
2022-10-25T09:28:45.139Z,98976.47
2022-10-25T09:31:19.191Z,98978.97
2022-10-25T09:33:48.527Z,98975.94
2022-10-25T09:36:18.241Z,98976.63
2022-10-25T09:38:49.683Z,98971.72
2022-10-25T09:41:22.586Z,98969.88
2022-10-25T09:43:59.114Z,98977.28
2022-10-25T09:46:37.393Z,98982.66
2022-10-25T09:49:17.657Z,98981.97
2022-10-25T09:51:57.459Z,98973.91
2022-10-25T09:54:30.483Z,98976.25
2022-10-25T09:56:58.209Z,98968.72
2022-10-25T09:59:27.785Z,98969.41
2022-10-25T10:01:55.652Z,98969.22
2022-10-25T10:04:26.788Z,98967.69
2022-10-25T10:07:03.664Z,98968.72
2022-10-25T10:09:33.256Z,98967.19
2022-10-25T10:12:05.414Z,98972.22
2022-10-25T10:14:37.808Z,98976.59
2022-10-25T10:17:11.987Z,98982.16
2022-10-25T10:19:40.438Z,98977.28
2022-10-25T10:22:15.179Z,98973.25
2022-10-25T10:24:44.689Z,98967.56
2022-10-25T10:27:24.862Z,98969.75
2022-10-25T10:29:57.335Z,98962.50
2022-10-25T10:32:27.826Z,98960.16
2022-10-25T10:34:57.508Z,98954.44
2022-10-25T10:37:28.170Z,98954.03
2022-10-25T10:39:57.883Z,98955.88
2022-10-25T10:47:29.955Z,98948.19
2022-10-25T10:49:57.705Z,98940.63
2022-10-25T10:52:31.440Z,98938.00
2022-10-25T10:55:01.052Z,98935.03
2022-10-25T10:57:32.808Z,98931.97
2022-10-25T11:00:02.385Z,98918.69
2022-10-25T11:02:38.941Z,98929.72
2022-10-25T11:05:20.628Z,98928.81
2022-10-25T11:07:57.265Z,98916.81
2022-10-25T11:10:36.589Z,98926.09
2022-10-25T11:13:16.567Z,98914.19
2022-10-25T11:16:10.744Z,98918.84
2022-10-25T11:18:49.415Z,98914.81
2022-10-25T11:22:00.640Z,98907.63
2022-10-25T11:24:38.413Z,98916.81
2022-10-25T11:27:18.786Z,98910.84
2022-10-25T11:30:06.354Z,98911.78
2022-10-25T11:33:09.068Z,98909.38
2022-10-25T11:35:46.262Z,98914.41
2022-10-25T11:38:20.698Z,98922.22
2022-10-25T11:41:01.556Z,98924.22
2022-10-25T11:43:47.451Z,98922.03
2022-10-25T11:46:28.800Z,98929.59
2022-10-25T11:49:12.446Z,98929.25
2022-10-25T11:51:49.297Z,98922.50
2022-10-25T11:54:29.625Z,98925.28
2022-10-25T11:57:11.428Z,98924.44
2022-10-25T11:59:50.786Z,98920.91
2022-10-25T12:02:36.494Z,98928.66
2022-10-25T12:05:18.530Z,98927.22
2022-10-25T12:07:51.063Z,98922.19
2022-10-25T12:10:26.754Z,98916.72
2022-10-25T12:12:59.865Z,98931.25
2022-10-25T12:15:36.424Z,98923.53
2022-10-25T12:18:06.315Z,98927.66
2022-10-25T12:20:36.175Z,98921.78
2022-10-25T12:23:13.373Z,98924.16
2022-10-25T12:25:45.208Z,98919.47
2022-10-25T12:28:23.001Z,98919.44
2022-10-25T12:30:57.319Z,98916.69
2022-10-25T12:33:34.802Z,98906.47
2022-10-25T12:36:07.105Z,98914.84
2022-10-25T12:38:37.401Z,98905.84
2022-10-25T12:41:09.770Z,98903.16
2022-10-25T12:43:46.903Z,98907.84
2022-10-25T12:46:49.099Z,98911.75
2022-10-25T12:49:37.200Z,98912.75
2022-10-25T12:52:21.163Z,98908.94
2022-10-25T12:55:33.309Z,98904.69
2022-10-25T12:58:24.556Z,98902.47
2022-10-25T13:01:08.302Z,98892.66
2022-10-25T13:03:52.179Z,98894.13
2022-10-25T13:06:30.694Z,98889.88
2022-10-25T13:09:05.467Z,98889.91
2022-10-25T13:11:37.696Z,98886.84
2022-10-25T13:14:06.031Z,98887.50
2022-10-25T13:16:36.145Z,98886.09
2022-10-25T13:19:30.591Z,98890.16
2022-10-25T13:22:34.272Z,98897.41
2022-10-25T13:25:16.775Z,98899.09
2022-10-25T13:28:14.257Z,98901.69
2022-10-25T13:30:44.140Z,98902.03
2022-10-25T13:33:29.378Z,98888.81
2022-10-25T13:36:01.856Z,98883.41
2022-10-25T13:38:36.570Z,98880.56
2022-10-25T13:41:18.981Z,98884.19
2022-10-25T13:44:00.341Z,98879.22
2022-10-25T13:46:33.569Z,98880.56
2022-10-25T13:49:05.254Z,98882.25
2022-10-25T13:51:33.810Z,98884.63
2022-10-25T13:54:07.170Z,98882.16
2022-10-25T13:56:50.967Z,98881.66
2022-10-25T13:59:37.441Z,98881.09
2022-10-25T14:02:18.185Z,98881.94
2022-10-25T14:04:46.839Z,98880.22
2022-10-25T14:07:53.986Z,98875.94
2022-10-25T14:10:30.489Z,98862.47
2022-10-25T14:13:12.192Z,98860.56
2022-10-25T14:15:47.944Z,98865.22
2022-10-25T14:18:21.504Z,98863.41
2022-10-25T14:20:53.715Z,98871.97
2022-10-25T14:23:23.995Z,98868.44
2022-10-25T14:25:56.474Z,98872.28
2022-10-25T14:28:28.529Z,98861.72
2022-10-25T14:30:57.990Z,98863.06
2022-10-25T14:33:32.163Z,98859.69
2022-10-25T14:36:10.801Z,98855.88
2022-10-25T14:38:52.169Z,98854.00
2022-10-25T14:41:26.285Z,98854.09
2022-10-25T14:43:54.352Z,98853.09
2022-10-25T14:46:23.917Z,98863.84
2022-10-25T14:48:58.455Z,98859.19
2022-10-25T14:51:29.568Z,98849.47
2022-10-25T14:54:01.306Z,98854.50
2022-10-25T14:56:33.311Z,98850.63
2022-10-25T14:59:02.618Z,98848.41
2022-10-25T15:01:30.718Z,98843.91
2022-10-25T15:04:01.672Z,98842.41
2022-10-25T15:06:32.384Z,98847.75
2022-10-25T15:09:41.244Z,98846.34
2022-10-25T15:12:19.054Z,98842.72
2022-10-25T15:14:48.283Z,98837.63
2022-10-25T15:17:25.703Z,98841.28
2022-10-25T15:20:08.035Z,98847.72
2022-10-25T15:22:43.923Z,98848.38
2022-10-25T15:25:20.031Z,98840.47
2022-10-25T15:27:48.073Z,98840.25
2022-10-25T15:30:34.379Z,98839.66
2022-10-25T15:33:02.594Z,98838.97
2022-10-25T15:35:33.438Z,98841.66
2022-10-25T15:38:01.170Z,98840.75
2022-10-25T15:40:28.979Z,98831.44
2022-10-25T15:42:56.748Z,98840.72
2022-10-25T15:45:24.445Z,98837.91
2022-10-25T15:47:55.453Z,98834.28
2022-10-25T15:50:23.634Z,98831.19
2022-10-25T15:52:53.081Z,98828.19
2022-10-25T15:55:23.570Z,98831.66
2022-10-25T15:57:52.198Z,98834.59
2022-10-25T16:00:25.723Z,98843.75
2022-10-25T16:02:56.705Z,98846.28
2022-10-25T16:05:27.104Z,98845.41
2022-10-25T16:07:58.697Z,98848.31
2022-10-25T16:10:27.951Z,98846.69
2022-10-25T16:12:59.868Z,98849.44
2022-10-25T16:15:28.018Z,98845.25
2022-10-25T16:17:55.740Z,98839.53
2022-10-25T16:20:27.101Z,98840.16
2022-10-25T16:22:55.587Z,98842.03
2022-10-25T16:25:30.464Z,98839.41
2022-10-25T16:28:01.638Z,98830.84
2022-10-25T16:30:36.564Z,98835.41
2022-10-25T16:33:06.061Z,98837.72
2022-10-25T16:35:33.863Z,98835.03
2022-10-25T16:38:01.970Z,98832.84
2022-10-25T16:40:31.714Z,98836.00
2022-10-25T16:43:00.489Z,98833.44
2022-10-25T16:45:30.783Z,98834.53
2022-10-25T16:47:58.723Z,98833.00
2022-10-25T16:50:28.323Z,98833.25
2022-10-25T16:52:58.372Z,98829.06
2022-10-25T16:55:28.744Z,98834.56
2022-10-25T16:57:57.975Z,98832.97
2022-10-25T17:00:26.415Z,98827.59
2022-10-25T17:02:54.733Z,98832.94
2022-10-25T17:05:24.907Z,98828.56
2022-10-25T17:07:53.305Z,98825.81
2022-10-25T17:10:23.864Z,98833.13
2022-10-25T17:12:53.099Z,98834.28
2022-10-25T17:15:24.297Z,98825.47
2022-10-25T17:17:52.093Z,98824.06
2022-10-25T17:20:20.344Z,98816.13
2022-10-25T17:22:48.728Z,98817.97
2022-10-25T17:25:17.308Z,98820.03
2022-10-25T17:27:47.988Z,98817.50
2022-10-25T17:30:17.061Z,98819.75
2022-10-25T17:32:46.252Z,98824.78
2022-10-25T17:35:14.042Z,98819.31
2022-10-25T17:37:43.905Z,98816.06
2022-10-25T17:40:13.636Z,98817.78
2022-10-25T17:42:41.352Z,98818.78
2022-10-25T17:45:10.148Z,98815.41
2022-10-25T17:47:42.334Z,98819.31
2022-10-25T17:50:12.815Z,98821.72
2022-10-25T17:52:41.311Z,98817.22
2022-10-25T17:55:11.167Z,98824.44
2022-10-25T17:57:38.933Z,98809.88
2022-10-25T18:00:07.929Z,98817.78
2022-10-25T18:02:50.761Z,98815.03
2022-10-25T18:05:22.040Z,98818.69
2022-10-25T18:07:50.426Z,98822.78
2022-10-25T18:10:18.550Z,98818.66
2022-10-25T18:12:46.907Z,98824.84
2022-10-25T18:15:14.915Z,98824.28
2022-10-25T18:17:43.090Z,98820.91
2022-10-25T18:20:11.386Z,98812.44
2022-10-25T18:22:40.675Z,98821.09
2022-10-25T18:25:08.975Z,98825.09
2022-10-25T18:27:36.994Z,98821.75
2022-10-25T18:30:05.269Z,98823.59
2022-10-25T18:32:35.379Z,98830.75
2022-10-25T18:35:04.484Z,98813.69
2022-10-25T18:37:32.182Z,98828.00
2022-10-25T18:40:01.311Z,98827.44
2022-10-25T18:42:29.069Z,98827.44
2022-10-25T18:44:56.790Z,98826.91
2022-10-25T18:47:24.530Z,98828.34
2022-10-25T18:49:52.306Z,98827.06
2022-10-25T18:52:20.073Z,98830.31
2022-10-25T18:54:47.778Z,98823.41
2022-10-25T18:57:19.021Z,98824.31
2022-10-25T18:59:47.498Z,98821.00
2022-10-25T19:02:15.351Z,98823.22
2022-10-25T19:04:43.211Z,98814.47
2022-10-25T19:07:10.950Z,98811.63
2022-10-25T19:09:38.724Z,98811.25
2022-10-25T19:12:06.934Z,98801.97
2022-10-25T19:14:35.983Z,98806.50
2022-10-25T19:17:03.834Z,98805.53
2022-10-25T19:19:31.570Z,98799.38
2022-10-25T19:21:59.310Z,98804.16
2022-10-25T19:24:27.158Z,98799.50
2022-10-25T19:26:54.954Z,98802.63
2022-10-25T19:29:22.720Z,98795.50
2022-10-25T19:31:51.985Z,98797.56
2022-10-25T19:34:20.563Z,98799.69
2022-10-25T19:36:48.846Z,98796.47
2022-10-25T19:39:16.565Z,98794.69
2022-10-25T19:41:44.520Z,98790.88
2022-10-25T19:44:12.199Z,98790.28
2022-10-25T19:46:39.903Z,98802.06
2022-10-25T19:49:11.035Z,98800.22
2022-10-25T19:51:38.751Z,98802.97
2022-10-25T19:54:06.560Z,98802.13
2022-10-25T19:56:37.170Z,98792.38
2022-10-25T19:59:05.017Z,98791.94
2022-10-25T20:01:33.731Z,98787.56
2022-10-25T20:04:01.648Z,98785.25
2022-10-25T20:06:32.947Z,98782.13
2022-10-25T20:09:01.885Z,98775.88
2022-10-25T20:11:31.367Z,98773.75
2022-10-25T20:14:01.774Z,98782.06
2022-10-25T20:16:31.010Z,98774.50
2022-10-25T20:19:01.023Z,98775.25
2022-10-25T20:21:34.617Z,98772.31
2022-10-25T20:24:04.388Z,98769.53
2022-10-25T20:26:33.945Z,98776.00
2022-10-25T20:29:04.459Z,98782.88
2022-10-25T20:31:34.016Z,98775.16
2022-10-25T20:34:04.143Z,98771.38
2022-10-25T20:36:33.296Z,98772.59
2022-10-25T20:39:01.082Z,98777.50
2022-10-25T20:41:30.760Z,98766.97
2022-10-25T20:44:00.704Z,98767.13
2022-10-25T20:46:29.746Z,98769.50
2022-10-25T20:48:58.270Z,98767.25
2022-10-25T20:51:26.624Z,98762.28
2022-10-25T20:53:56.807Z,98751.34
2022-10-25T20:56:24.915Z,98759.44
2022-10-25T20:58:52.961Z,98762.50
2022-10-25T21:01:20.930Z,98767.63
2022-10-25T21:03:48.819Z,98766.50
2022-10-25T21:06:16.684Z,98757.44
2022-10-25T21:08:46.858Z,98755.72
2022-10-25T21:11:15.920Z,98757.50
2022-10-25T21:13:43.602Z,98753.88
2022-10-25T21:16:14.915Z,98748.72
2022-10-25T21:18:43.590Z,98747.88
2022-10-25T21:21:18.299Z,98746.28
2022-10-25T21:23:46.232Z,98742.66
2022-10-25T21:26:14.064Z,98738.31
2022-10-25T21:28:43.197Z,98744.16
2022-10-25T21:31:12.978Z,98754.81
2022-10-25T21:33:41.710Z,98751.06
2022-10-25T21:36:12.301Z,98754.38
2022-10-25T21:38:40.654Z,98741.03
2022-10-25T21:41:10.675Z,98742.31
2022-10-25T21:43:45.052Z,98735.66
2022-10-25T21:46:13.797Z,98739.25
2022-10-25T21:48:41.919Z,98746.00
2022-10-25T21:51:09.686Z,98745.44
2022-10-25T21:53:37.425Z,98743.88
2022-10-25T21:56:07.237Z,98734.06
2022-10-25T21:58:35.037Z,98716.84
2022-10-25T22:01:08.036Z,98697.84
2022-10-25T22:03:35.913Z,98706.13
2022-10-25T22:06:03.657Z,98713.72
2022-10-25T22:08:31.512Z,98688.13
2022-10-25T22:13:32.972Z,98721.91
2022-10-25T22:16:02.387Z,98735.91
2022-10-25T22:18:31.827Z,98726.13
2022-10-25T22:21:00.899Z,98726.22
2022-10-25T22:23:30.328Z,98726.06
2022-10-25T22:26:00.779Z,98729.44
2022-10-25T22:28:28.530Z,98733.50
2022-10-25T22:30:59.767Z,98727.28
2022-10-25T22:33:27.585Z,98720.06
2022-10-25T22:35:56.705Z,98724.94
2022-10-25T22:38:24.676Z,98721.81
2022-10-25T22:40:59.550Z,98716.47
2022-10-25T22:43:27.940Z,98714.78
2022-10-25T22:45:56.089Z,98714.03
2022-10-25T22:48:26.155Z,98704.34
2022-10-25T22:50:56.356Z,98705.50
2022-10-25T22:53:24.166Z,98717.88
2022-10-25T22:55:56.508Z,98713.19
2022-10-25T22:58:25.039Z,98717.25
2022-10-25T23:00:53.257Z,98704.25
2022-10-25T23:03:21.067Z,98717.75
2022-10-25T23:05:48.802Z,98718.97
2022-10-25T23:08:17.859Z,98702.28
2022-10-25T23:10:45.595Z,98685.94
2022-10-25T23:13:13.315Z,98667.84
2022-10-25T23:15:41.169Z,98670.97
2022-10-25T23:18:08.906Z,98683.66
2022-10-25T23:20:36.685Z,98686.16
2022-10-25T23:23:04.543Z,98687.47
2022-10-25T23:25:35.458Z,98697.66
2022-10-25T23:28:03.183Z,98711.56
2022-10-25T23:30:33.503Z,98711.75
2022-10-25T23:33:01.682Z,98703.84
2022-10-25T23:35:33.526Z,98709.16
2022-10-25T23:38:01.311Z,98714.59
2022-10-25T23:40:31.475Z,98707.69
2022-10-25T23:43:01.391Z,98708.16
2022-10-25T23:45:29.158Z,98702.28
2022-10-25T23:47:56.919Z,98692.66
2022-10-25T23:50:25.137Z,98688.53
2022-10-25T23:52:52.847Z,98687.16
2022-10-25T23:55:22.657Z,98691.06
2022-10-25T23:57:56.677Z,98691.22
